Hauptseite
METAR-TAF:

METAR-TAF

Flughäfen :

Colmenar Viejo, Spanien

Breite: 40-39N, Länge: 003-44W, Höhe: -999 m

Beobachtung

Neuester Wetterbericht von vor 2 Stunden und 31 Minuten, um 18:00 UTC
Wind 2 kt aus unterschiedlichen Richtungen
Temperatur 4°C
Luftfeuchtigkeit 100%
Luftdruck 1024 hPa
Sichtweite: 0100 m
Nebel

METAR: LECV 081800Z VRB02KT 0100 FG VV001 04/04 Q1024

Zeit: 21:31 (20:31 UTC)

Prognose

Neuester Wetterbericht von vor 3 Stunden und 31 Minuten, um 17:00 UTC
Gültige Prognose vom 08 um 18 UTC bis 09 um 03 UTC
Wind 4 kt aus unterschiedlichen Richtungen
Sichtweite: 0100 m
in der Höhe von 100 ft
Nebel

TAF: LECV 081700Z 0818/0903 VRB04KT 0100 FG VV001

Wetterbeobachtungen und Prognosen von mehr als 4000 Flughäfen (METAR und TAF Bericht).

Die verfügbaren Stationen werden durch gelbe und rote Markierungen auf der Karte dargestellt.

Führen Sie die Maus auf sie, um den Namen der Station zu sehen.

Darauf klicken, um die Beobachtung von Wetterbeobachtungen und Prognosen zu sehen.

Um die Karte zu ändern : klicken Sie auf den grünen Tasten mit einem schwarzen Kreuz Zum Vergrößern, auf den grünen Button mit einem Gedankenstrich zu verkleinern, oder auf die grünen Pfeile für benachbarte Karten.


METAR-TAF: